sensor_id;sensor_type;location;lat;lon;timestamp;pressure;altitude;pressure_sealevel;temperature;humidity
5062;BME280;2351;50.812;12.872;2022-08-03T00:00:39;98033.75;;;18.30;69.12
5062;BME280;2351;50.812;12.872;2022-08-03T00:03:11;98033.09;;;18.28;69.41
5062;BME280;2351;50.812;12.872;2022-08-03T00:05:42;98034.94;;;18.27;69.43
5062;BME280;2351;50.812;12.872;2022-08-03T00:08:14;98030.78;;;18.25;69.55
5062;BME280;2351;50.812;12.872;2022-08-03T00:10:45;98028.66;;;18.20;69.87
5062;BME280;2351;50.812;12.872;2022-08-03T00:13:18;98027.31;;;18.16;70.00
5062;BME280;2351;50.812;12.872;2022-08-03T00:15:50;98028.03;;;18.10;70.09
5062;BME280;2351;50.812;12.872;2022-08-03T00:18:22;98031.06;;;18.06;70.36
5062;BME280;2351;50.812;12.872;2022-08-03T00:20:53;98038.78;;;18.01;70.41
5062;BME280;2351;50.812;12.872;2022-08-03T00:23:25;98030.81;;;17.93;70.66
5062;BME280;2351;50.812;12.872;2022-08-03T00:25:57;98037.50;;;17.89;70.73
5062;BME280;2351;50.812;12.872;2022-08-03T00:28:29;98037.88;;;17.86;70.98
5062;BME280;2351;50.812;12.872;2022-08-03T00:31:01;98033.72;;;17.83;71.14
5062;BME280;2351;50.812;12.872;2022-08-03T00:33:33;98038.22;;;17.83;71.18
5062;BME280;2351;50.812;12.872;2022-08-03T00:36:04;98033.72;;;17.83;71.26
5062;BME280;2351;50.812;12.872;2022-08-03T00:38:36;98037.38;;;17.82;71.28
5062;BME280;2351;50.812;12.872;2022-08-03T00:41:08;98033.56;;;17.76;71.19
5062;BME280;2351;50.812;12.872;2022-08-03T00:43:40;98043.19;;;17.63;71.29
5062;BME280;2351;50.812;12.872;2022-08-03T00:46:12;98036.72;;;17.49;71.56
5062;BME280;2351;50.812;12.872;2022-08-03T00:48:44;98038.75;;;17.38;72.02
5062;BME280;2351;50.812;12.872;2022-08-03T00:51:15;98033.94;;;17.34;72.43
5062;BME280;2351;50.812;12.872;2022-08-03T00:53:48;98035.63;;;17.35;72.54
5062;BME280;2351;50.812;12.872;2022-08-03T00:56:20;98037.28;;;17.36;72.81
5062;BME280;2351;50.812;12.872;2022-08-03T00:58:55;98036.44;;;17.35;72.77
5062;BME280;2351;50.812;12.872;2022-08-03T01:01:27;98038.09;;;17.36;72.77
5062;BME280;2351;50.812;12.872;2022-08-03T01:03:59;98033.59;;;17.37;72.99
5062;BME280;2351;50.812;12.872;2022-08-03T01:06:35;98030.06;;;17.36;73.24
5062;BME280;2351;50.812;12.872;2022-08-03T01:09:16;98029.41;;;17.34;73.40
5062;BME280;2351;50.812;12.872;2022-08-03T01:11:59;98027.94;;;17.31;73.48
5062;BME280;2351;50.812;12.872;2022-08-03T01:14:38;98033.16;;;17.25;73.55
5062;BME280;2351;50.812;12.872;2022-08-03T01:17:14;98026.47;;;17.21;73.88
5062;BME280;2351;50.812;12.872;2022-08-03T01:19:54;98029.81;;;17.14;73.90
5062;BME280;2351;50.812;12.872;2022-08-03T01:22:53;98037.38;;;17.11;74.04
5062;BME280;2351;50.812;12.872;2022-08-03T01:25:39;98025.81;;;17.10;74.16
5062;BME280;2351;50.812;12.872;2022-08-03T01:28:29;98036.88;;;17.07;74.36
5062;BME280;2351;50.812;12.872;2022-08-03T01:31:06;98038.03;;;17.05;74.42
5062;BME280;2351;50.812;12.872;2022-08-03T01:33:41;98032.38;;;16.99;74.62
5062;BME280;2351;50.812;12.872;2022-08-03T01:36:16;98031.88;;;16.96;74.92
5062;BME280;2351;50.812;12.872;2022-08-03T01:38:52;98034.72;;;16.94;74.78
5062;BME280;2351;50.812;12.872;2022-08-03T01:41:29;98034.88;;;16.93;75.16
5062;BME280;2351;50.812;12.872;2022-08-03T01:44:02;98042.88;;;16.93;75.22
5062;BME280;2351;50.812;12.872;2022-08-03T01:46:38;98033.38;;;16.90;75.32
5062;BME280;2351;50.812;12.872;2022-08-03T01:49:12;98034.56;;;16.88;75.62
5062;BME280;2351;50.812;12.872;2022-08-03T01:51:45;98026.22;;;16.82;75.45
5062;BME280;2351;50.812;12.872;2022-08-03T01:54:18;98037.59;;;16.76;75.52
5062;BME280;2351;50.812;12.872;2022-08-03T01:56:51;98028.75;;;16.67;75.91
5062;BME280;2351;50.812;12.872;2022-08-03T01:59:24;98031.94;;;16.63;76.04
5062;BME280;2351;50.812;12.872;2022-08-03T02:01:58;98033.94;;;16.61;76.27
5062;BME280;2351;50.812;12.872;2022-08-03T02:04:31;98029.41;;;16.61;76.34
5062;BME280;2351;50.812;12.872;2022-08-03T02:07:02;98035.09;;;16.58;76.35
5062;BME280;2351;50.812;12.872;2022-08-03T02:09:36;98026.06;;;16.59;76.63
5062;BME280;2351;50.812;12.872;2022-08-03T02:12:10;98033.41;;;16.57;76.58
5062;BME280;2351;50.812;12.872;2022-08-03T02:14:43;98028.44;;;16.54;76.69
5062;BME280;2351;50.812;12.872;2022-08-03T02:17:18;98026.91;;;16.51;76.85
5062;BME280;2351;50.812;12.872;2022-08-03T02:19:51;98030.59;;;16.50;77.12
5062;BME280;2351;50.812;12.872;2022-08-03T02:22:24;98025.44;;;16.49;77.28
5062;BME280;2351;50.812;12.872;2022-08-03T02:24:56;98031.94;;;16.46;77.36
5062;BME280;2351;50.812;12.872;2022-08-03T02:27:28;98027.75;;;16.44;77.70
5062;BME280;2351;50.812;12.872;2022-08-03T02:30:05;98018.25;;;16.41;77.75
5062;BME280;2351;50.812;12.872;2022-08-03T02:32:40;98020.09;;;16.40;77.77
5062;BME280;2351;50.812;12.872;2022-08-03T02:35:14;98022.94;;;16.39;77.93
5062;BME280;2351;50.812;12.872;2022-08-03T02:37:49;98024.75;;;16.38;77.96
5062;BME280;2351;50.812;12.872;2022-08-03T02:40:23;98015.75;;;16.39;78.24
5062;BME280;2351;50.812;12.872;2022-08-03T02:43:04;98024.59;;;16.40;78.29
5062;BME280;2351;50.812;12.872;2022-08-03T02:45:42;98023.59;;;16.41;78.15
5062;BME280;2351;50.812;12.872;2022-08-03T02:48:17;98029.09;;;16.39;78.18
5062;BME280;2351;50.812;12.872;2022-08-03T02:50:53;98020.59;;;16.36;78.15
5062;BME280;2351;50.812;12.872;2022-08-03T02:53:27;98020.94;;;16.33;78.40
5062;BME280;2351;50.812;12.872;2022-08-03T02:56:01;98015.91;;;16.30;78.59
5062;BME280;2351;50.812;12.872;2022-08-03T02:58:35;98018.09;;;16.26;78.58
5062;BME280;2351;50.812;12.872;2022-08-03T03:01:08;98013.25;;;16.21;78.73
5062;BME280;2351;50.812;12.872;2022-08-03T03:03:41;98017.25;;;16.17;78.78
5062;BME280;2351;50.812;12.872;2022-08-03T03:06:14;98008.59;;;16.15;78.94
5062;BME280;2351;50.812;12.872;2022-08-03T03:08:47;98016.75;;;16.14;79.00
5062;BME280;2351;50.812;12.872;2022-08-03T03:11:20;98013.41;;;16.11;79.30
5062;BME280;2351;50.812;12.872;2022-08-03T03:13:54;98024.06;;;16.11;79.33
5062;BME280;2351;50.812;12.872;2022-08-03T03:16:27;98019.91;;;16.09;79.67
5062;BME280;2351;50.812;12.872;2022-08-03T03:19:01;98018.09;;;16.09;79.52
5062;BME280;2351;50.812;12.872;2022-08-03T03:21:34;98016.56;;;16.07;79.80
5062;BME280;2351;50.812;12.872;2022-08-03T03:24:08;98015.91;;;16.05;79.79
5062;BME280;2351;50.812;12.872;2022-08-03T03:26:41;98020.56;;;16.03;80.00
5062;BME280;2351;50.812;12.872;2022-08-03T03:29:14;98008.22;;;16.02;79.83
5062;BME280;2351;50.812;12.872;2022-08-03T03:31:46;98012.75;;;16.01;79.95
5062;BME280;2351;50.812;12.872;2022-08-03T03:34:19;98013.75;;;16.00;80.28
5062;BME280;2351;50.812;12.872;2022-08-03T03:36:51;98013.91;;;15.99;80.31
5062;BME280;2351;50.812;12.872;2022-08-03T03:39:22;98007.91;;;15.96;80.42
5062;BME280;2351;50.812;12.872;2022-08-03T03:41:54;98016.72;;;15.97;80.39
5062;BME280;2351;50.812;12.872;2022-08-03T03:44:26;98010.56;;;15.96;80.39
5062;BME280;2351;50.812;12.872;2022-08-03T03:46:58;98013.25;;;15.96;80.65
5062;BME280;2351;50.812;12.872;2022-08-03T03:49:31;98010.56;;;15.96;80.71
5062;BME280;2351;50.812;12.872;2022-08-03T03:52:04;98013.06;;;15.98;80.72
5062;BME280;2351;50.812;12.872;2022-08-03T03:54:39;98016.59;;;15.99;80.82
5062;BME280;2351;50.812;12.872;2022-08-03T03:57:11;98018.41;;;15.98;80.96
5062;BME280;2351;50.812;12.872;2022-08-03T03:59:43;98015.25;;;15.94;80.96
5062;BME280;2351;50.812;12.872;2022-08-03T04:02:15;98020.72;;;15.93;81.11
5062;BME280;2351;50.812;12.872;2022-08-03T04:04:47;98018.22;;;15.91;81.23
5062;BME280;2351;50.812;12.872;2022-08-03T04:07:42;98012.91;;;15.91;81.42
5062;BME280;2351;50.812;12.872;2022-08-03T04:10:35;98018.22;;;15.91;81.64
5062;BME280;2351;50.812;12.872;2022-08-03T04:13:29;98014.56;;;15.92;81.60
5062;BME280;2351;50.812;12.872;2022-08-03T04:16:02;98016.25;;;15.93;81.59
5062;BME280;2351;50.812;12.872;2022-08-03T04:18:36;98018.59;;;15.96;82.17
5062;BME280;2351;50.812;12.872;2022-08-03T04:21:11;98017.59;;;15.98;81.95
5062;BME280;2351;50.812;12.872;2022-08-03T04:23:47;98024.22;;;16.02;82.15
5062;BME280;2351;50.812;12.872;2022-08-03T04:26:21;98031.25;;;16.03;82.36
5062;BME280;2351;50.812;12.872;2022-08-03T04:28:53;98033.25;;;16.01;82.31
5062;BME280;2351;50.812;12.872;2022-08-03T04:31:26;98032.25;;;16.02;82.59
5062;BME280;2351;50.812;12.872;2022-08-03T04:33:58;98034.59;;;16.05;82.56
5062;BME280;2351;50.812;12.872;2022-08-03T04:36:37;98027.91;;;16.09;82.70
5062;BME280;2351;50.812;12.872;2022-08-03T04:39:13;98028.28;;;16.14;82.72
5062;BME280;2351;50.812;12.872;2022-08-03T04:41:47;98032.09;;;16.20;82.86
5062;BME280;2351;50.812;12.872;2022-08-03T04:44:20;98035.78;;;16.27;83.02
5062;BME280;2351;50.812;12.872;2022-08-03T04:46:54;98034.94;;;16.35;83.16
5062;BME280;2351;50.812;12.872;2022-08-03T04:49:28;98032.28;;;16.43;83.21
5062;BME280;2351;50.812;12.872;2022-08-03T04:52:02;98042.28;;;16.49;83.32
5062;BME280;2351;50.812;12.872;2022-08-03T04:54:38;98044.09;;;16.57;83.53
5062;BME280;2351;50.812;12.872;2022-08-03T04:57:10;98050.94;;;16.68;83.75
5062;BME280;2351;50.812;12.872;2022-08-03T04:59:42;98045.41;;;16.78;83.95
5062;BME280;2351;50.812;12.872;2022-08-03T05:02:14;98052.25;;;16.89;84.04
5062;BME280;2351;50.812;12.872;2022-08-03T05:04:46;98051.28;;;16.98;84.30
5062;BME280;2351;50.812;12.872;2022-08-03T05:07:19;98059.28;;;17.06;83.94
5062;BME280;2351;50.812;12.872;2022-08-03T05:09:51;98053.22;;;17.12;84.08
5062;BME280;2351;50.812;12.872;2022-08-03T05:12:23;98054.06;;;17.21;83.97
5062;BME280;2351;50.812;12.872;2022-08-03T05:14:54;98043.31;;;17.29;84.13
5062;BME280;2351;50.812;12.872;2022-08-03T05:17:26;98052.16;;;17.38;84.22
5062;BME280;2351;50.812;12.872;2022-08-03T05:19:58;98043.75;;;17.50;84.27
5062;BME280;2351;50.812;12.872;2022-08-03T05:22:31;98047.69;;;17.62;84.19
5062;BME280;2351;50.812;12.872;2022-08-03T05:25:04;98045.66;;;17.72;84.10
5062;BME280;2351;50.812;12.872;2022-08-03T05:27:35;98036.53;;;17.82;84.24
5062;BME280;2351;50.812;12.872;2022-08-03T05:30:08;98039.84;;;17.92;84.00
5062;BME280;2351;50.812;12.872;2022-08-03T05:32:39;98030.75;;;18.01;84.05
5062;BME280;2351;50.812;12.872;2022-08-03T05:35:11;98034.50;;;18.15;84.07
5062;BME280;2351;50.812;12.872;2022-08-03T05:37:44;98040.94;;;18.29;84.14
5062;BME280;2351;50.812;12.872;2022-08-03T05:40:15;98041.34;;;18.41;84.02
5062;BME280;2351;50.812;12.872;2022-08-03T05:42:47;98035.19;;;18.56;83.92
5062;BME280;2351;50.812;12.872;2022-08-03T05:45:19;98038.91;;;18.70;84.19
5062;BME280;2351;50.812;12.872;2022-08-03T05:47:50;98038.16;;;18.99;84.49
5062;BME280;2351;50.812;12.872;2022-08-03T05:50:22;98043.44;;;19.37;83.62
5062;BME280;2351;50.812;12.872;2022-08-03T05:52:55;98040.09;;;19.87;82.78
5062;BME280;2351;50.812;12.872;2022-08-03T05:55:28;98033.66;;;20.46;81.74
5062;BME280;2351;50.812;12.872;2022-08-03T05:57:59;98034.81;;;20.81;81.09
5062;BME280;2351;50.812;12.872;2022-08-03T06:00:32;98035.94;;;21.28;80.79
5062;BME280;2351;50.812;12.872;2022-08-03T06:03:04;98040.91;;;21.73;80.71
5062;BME280;2351;50.812;12.872;2022-08-03T06:05:35;98033.72;;;22.07;80.71
5062;BME280;2351;50.812;12.872;2022-08-03T06:08:09;98033.56;;;22.22;80.47
5062;BME280;2351;50.812;12.872;2022-08-03T06:10:40;98035.69;;;22.47;80.08
5062;BME280;2351;50.812;12.872;2022-08-03T06:13:12;98037.97;;;22.77;79.21
5062;BME280;2351;50.812;12.872;2022-08-03T06:15:43;98031.69;;;23.04;77.39
5062;BME280;2351;50.812;12.872;2022-08-03T06:18:15;98032.09;;;23.00;76.92
5062;BME280;2351;50.812;12.872;2022-08-03T06:20:47;98025.50;;;22.83;76.25
5062;BME280;2351;50.812;12.872;2022-08-03T06:23:19;98025.09;;;22.66;75.87
5062;BME280;2351;50.812;12.872;2022-08-03T06:25:51;98033.59;;;22.56;75.49
5062;BME280;2351;50.812;12.872;2022-08-03T06:28:23;98037.56;;;22.53;74.64
5062;BME280;2351;50.812;12.872;2022-08-03T06:30:54;98029.25;;;22.48;73.97
5062;BME280;2351;50.812;12.872;2022-08-03T06:33:26;98032.16;;;22.47;73.37
5062;BME280;2351;50.812;12.872;2022-08-03T06:35:57;98030.50;;;22.52;73.04
5062;BME280;2351;50.812;12.872;2022-08-03T06:38:30;98029.69;;;22.59;72.65
5062;BME280;2351;50.812;12.872;2022-08-03T06:41:02;98035.06;;;22.65;72.34
5062;BME280;2351;50.812;12.872;2022-08-03T06:43:34;98031.31;;;22.73;71.46
5062;BME280;2351;50.812;12.872;2022-08-03T06:46:06;98030.28;;;22.74;69.89
5062;BME280;2351;50.812;12.872;2022-08-03T06:48:38;98027.38;;;22.82;69.76
5062;BME280;2351;50.812;12.872;2022-08-03T06:51:10;98029.63;;;22.85;66.57
5062;BME280;2351;50.812;12.872;2022-08-03T06:53:43;98033.56;;;23.03;67.64
5062;BME280;2351;50.812;12.872;2022-08-03T06:56:14;98031.88;;;23.15;67.02
5062;BME280;2351;50.812;12.872;2022-08-03T06:58:46;98038.09;;;23.29;67.17
5062;BME280;2351;50.812;12.872;2022-08-03T07:01:18;98033.28;;;23.38;66.33
5062;BME280;2351;50.812;12.872;2022-08-03T07:03:49;98039.91;;;23.49;66.00
5062;BME280;2351;50.812;12.872;2022-08-03T07:06:21;98029.88;;;23.63;65.20
5062;BME280;2351;50.812;12.872;2022-08-03T07:08:54;98034.75;;;23.86;64.94
5062;BME280;2351;50.812;12.872;2022-08-03T07:11:25;98025.72;;;24.06;63.25
5062;BME280;2351;50.812;12.872;2022-08-03T07:13:57;98024.56;;;24.27;63.09
5062;BME280;2351;50.812;12.872;2022-08-03T07:16:29;98027.81;;;24.36;62.25
5062;BME280;2351;50.812;12.872;2022-08-03T07:19:00;98031.06;;;24.45;61.52
5062;BME280;2351;50.812;12.872;2022-08-03T07:21:32;98033.50;;;24.53;61.25
5062;BME280;2351;50.812;12.872;2022-08-03T07:24:05;98028.88;;;24.60;60.26
5062;BME280;2351;50.812;12.872;2022-08-03T07:26:37;98029.22;;;24.71;59.92
5062;BME280;2351;50.812;12.872;2022-08-03T07:29:08;98029.56;;;24.81;59.89
5062;BME280;2351;50.812;12.872;2022-08-03T07:31:40;98034.22;;;24.92;58.47
5062;BME280;2351;50.812;12.872;2022-08-03T07:34:12;98029.78;;;24.98;56.40
5062;BME280;2351;50.812;12.872;2022-08-03T07:36:44;98027.94;;;24.99;52.46
5062;BME280;2351;50.812;12.872;2022-08-03T07:39:17;98027.94;;;25.17;54.01
5062;BME280;2351;50.812;12.872;2022-08-03T07:41:48;98024.88;;;25.32;51.55
5062;BME280;2351;50.812;12.872;2022-08-03T07:44:21;98021.03;;;25.40;50.97
5062;BME280;2351;50.812;12.872;2022-08-03T07:46:52;98027.50;;;25.58;51.37
5062;BME280;2351;50.812;12.872;2022-08-03T07:49:24;98015.66;;;25.70;51.63
5062;BME280;2351;50.812;12.872;2022-08-03T07:51:55;98020.78;;;25.79;51.37
5062;BME280;2351;50.812;12.872;2022-08-03T07:54:46;98020.91;;;25.84;50.72
5062;BME280;2351;50.812;12.872;2022-08-03T07:57:17;98021.97;;;25.83;49.29
5062;BME280;2351;50.812;12.872;2022-08-03T07:59:49;98026.13;;;25.85;46.44
5062;BME280;2351;50.812;12.872;2022-08-03T08:02:20;98017.97;;;25.85;44.74
5062;BME280;2351;50.812;12.872;2022-08-03T08:04:52;98016.59;;;25.95;45.68
5062;BME280;2351;50.812;12.872;2022-08-03T08:07:23;98022.59;;;25.97;41.99
5062;BME280;2351;50.812;12.872;2022-08-03T08:09:56;98018.16;;;26.02;41.95
5062;BME280;2351;50.812;12.872;2022-08-03T08:12:28;98016.59;;;26.13;41.46
5062;BME280;2351;50.812;12.872;2022-08-03T08:15:00;98014.72;;;26.26;41.86
5062;BME280;2351;50.812;12.872;2022-08-03T08:17:40;98014.13;;;26.36;40.95
5062;BME280;2351;50.812;12.872;2022-08-03T08:20:16;98025.59;;;26.38;41.29
5062;BME280;2351;50.812;12.872;2022-08-03T08:22:47;98008.00;;;26.40;41.29
5062;BME280;2351;50.812;12.872;2022-08-03T08:25:21;98016.28;;;26.45;40.86
5062;BME280;2351;50.812;12.872;2022-08-03T08:27:52;98003.91;;;26.50;39.98
5062;BME280;2351;50.812;12.872;2022-08-03T08:30:24;98007.09;;;26.46;40.76
5062;BME280;2351;50.812;12.872;2022-08-03T08:32:55;98009.47;;;26.55;40.34
5062;BME280;2351;50.812;12.872;2022-08-03T08:35:28;98011.59;;;26.65;40.93
5062;BME280;2351;50.812;12.872;2022-08-03T08:37:59;98008.16;;;26.69;40.21
5062;BME280;2351;50.812;12.872;2022-08-03T08:40:32;98010.91;;;26.81;40.08
5062;BME280;2351;50.812;12.872;2022-08-03T08:43:04;98003.47;;;26.88;40.08
5062;BME280;2351;50.812;12.872;2022-08-03T08:45:36;98005.72;;;26.91;39.02
5062;BME280;2351;50.812;12.872;2022-08-03T08:48:09;98004.28;;;26.89;39.45
5062;BME280;2351;50.812;12.872;2022-08-03T08:50:41;98006.28;;;26.94;39.54
5062;BME280;2351;50.812;12.872;2022-08-03T08:53:14;98009.00;;;27.05;39.96
5062;BME280;2351;50.812;12.872;2022-08-03T08:55:49;98004.50;;;27.23;39.90
5062;BME280;2351;50.812;12.872;2022-08-03T08:58:21;97998.78;;;27.36;40.01
5062;BME280;2351;50.812;12.872;2022-08-03T09:00:53;97999.25;;;27.57;40.23
5062;BME280;2351;50.812;12.872;2022-08-03T09:03:25;97997.00;;;27.83;39.67
5062;BME280;2351;50.812;12.872;2022-08-03T09:05:58;98002.13;;;27.96;37.93
5062;BME280;2351;50.812;12.872;2022-08-03T09:08:31;98003.63;;;28.04;38.20
5062;BME280;2351;50.812;12.872;2022-08-03T09:11:04;97992.03;;;28.09;37.95
5062;BME280;2351;50.812;12.872;2022-08-03T09:13:36;97992.41;;;28.13;37.55
5062;BME280;2351;50.812;12.872;2022-08-03T09:16:10;97997.84;;;28.13;37.32
5062;BME280;2351;50.812;12.872;2022-08-03T09:18:43;97992.13;;;28.14;36.42
5062;BME280;2351;50.812;12.872;2022-08-03T09:21:19;97996.91;;;28.07;36.33
5062;BME280;2351;50.812;12.872;2022-08-03T09:23:53;97999.53;;;28.02;35.91
5062;BME280;2351;50.812;12.872;2022-08-03T09:26:28;97993.16;;;27.96;36.33
5062;BME280;2351;50.812;12.872;2022-08-03T09:29:02;97992.25;;;27.90;35.41
5062;BME280;2351;50.812;12.872;2022-08-03T09:31:36;97996.94;;;27.66;36.46
5062;BME280;2351;50.812;12.872;2022-08-03T09:34:10;97994.94;;;27.73;36.07
5062;BME280;2351;50.812;12.872;2022-08-03T09:36:42;97997.00;;;27.83;35.95
5062;BME280;2351;50.812;12.872;2022-08-03T09:39:17;97995.53;;;27.92;35.92
5062;BME280;2351;50.812;12.872;2022-08-03T09:42:04;97991.38;;;28.02;35.87
5062;BME280;2351;50.812;12.872;2022-08-03T09:44:37;97985.34;;;28.00;34.68
5062;BME280;2351;50.812;12.872;2022-08-03T09:47:12;97989.81;;;28.06;35.41
5062;BME280;2351;50.812;12.872;2022-08-03T09:49:56;97980.47;;;28.02;34.40
5062;BME280;2351;50.812;12.872;2022-08-03T09:52:32;97981.38;;;28.07;34.93
5062;BME280;2351;50.812;12.872;2022-08-03T09:55:07;97979.06;;;28.11;34.46
5062;BME280;2351;50.812;12.872;2022-08-03T09:57:41;97978.06;;;28.17;33.86
5062;BME280;2351;50.812;12.872;2022-08-03T10:00:16;97977.91;;;28.24;34.61
5062;BME280;2351;50.812;12.872;2022-08-03T10:02:47;97978.66;;;28.36;34.20
5062;BME280;2351;50.812;12.872;2022-08-03T10:05:30;97976.16;;;28.52;34.20
5062;BME280;2351;50.812;12.872;2022-08-03T10:08:13;97981.50;;;28.64;34.13
5062;BME280;2351;50.812;12.872;2022-08-03T10:10:46;97975.44;;;28.56;33.08
5062;BME280;2351;50.812;12.872;2022-08-03T10:13:21;97977.13;;;28.63;33.62
5062;BME280;2351;50.812;12.872;2022-08-03T10:15:52;97973.91;;;28.66;32.70
5062;BME280;2351;50.812;12.872;2022-08-03T10:18:24;97973.53;;;28.74;32.86
5062;BME280;2351;50.812;12.872;2022-08-03T10:20:58;97965.94;;;28.76;31.95
5062;BME280;2351;50.812;12.872;2022-08-03T10:23:34;97964.88;;;28.77;32.17
5062;BME280;2351;50.812;12.872;2022-08-03T10:26:10;97963.81;;;28.78;32.37
5062;BME280;2351;50.812;12.872;2022-08-03T10:28:48;97959.63;;;28.93;32.05
5062;BME280;2351;50.812;12.872;2022-08-03T10:31:21;97962.75;;;29.01;31.16
5062;BME280;2351;50.812;12.872;2022-08-03T10:33:56;97957.09;;;29.08;30.92
5062;BME280;2351;50.812;12.872;2022-08-03T10:36:30;97958.81;;;29.14;30.41
5062;BME280;2351;50.812;12.872;2022-08-03T10:39:03;97957.88;;;29.26;30.46
5062;BME280;2351;50.812;12.872;2022-08-03T10:41:39;97953.91;;;29.34;30.35
5062;BME280;2351;50.812;12.872;2022-08-03T10:44:17;97962.28;;;29.49;31.02
5062;BME280;2351;50.812;12.872;2022-08-03T10:46:49;97947.41;;;29.62;31.19
5062;BME280;2351;50.812;12.872;2022-08-03T10:49:22;97945.84;;;29.71;31.06
5062;BME280;2351;50.812;12.872;2022-08-03T10:51:55;97949.00;;;29.85;31.08
5062;BME280;2351;50.812;12.872;2022-08-03T10:54:37;97936.78;;;29.93;29.47
5062;BME280;2351;50.812;12.872;2022-08-03T10:57:51;97939.31;;;29.72;29.60
5062;BME280;2351;50.812;12.872;2022-08-03T11:00:25;97939.38;;;29.78;29.89
5062;BME280;2351;50.812;12.872;2022-08-03T11:03:05;97942.25;;;29.93;29.78
5062;BME280;2351;50.812;12.872;2022-08-03T11:05:40;97939.13;;;30.07;29.17
5062;BME280;2351;50.812;12.872;2022-08-03T11:08:20;97932.44;;;30.19;28.70
5062;BME280;2351;50.812;12.872;2022-08-03T11:10:54;97934.44;;;30.34;28.92
5062;BME280;2351;50.812;12.872;2022-08-03T11:13:28;97925.25;;;30.46;28.61
5062;BME280;2351;50.812;12.872;2022-08-03T11:16:19;97931.09;;;30.60;28.99
5062;BME280;2351;50.812;12.872;2022-08-03T11:18:56;97923.47;;;30.62;28.12
5062;BME280;2351;50.812;12.872;2022-08-03T11:21:56;97921.72;;;30.50;28.74
5062;BME280;2351;50.812;12.872;2022-08-03T11:24:56;97918.38;;;30.38;28.14
5062;BME280;2351;50.812;12.872;2022-08-03T11:27:30;97920.09;;;30.12;28.18
5062;BME280;2351;50.812;12.872;2022-08-03T11:30:05;97928.53;;;30.10;29.00
5062;BME280;2351;50.812;12.872;2022-08-03T11:32:59;97914.41;;;30.18;28.53
5062;BME280;2351;50.812;12.872;2022-08-03T11:35:33;97911.69;;;30.24;28.77
5062;BME280;2351;50.812;12.872;2022-08-03T11:38:06;97910.22;;;30.43;28.16
5062;BME280;2351;50.812;12.872;2022-08-03T11:40:42;97911.75;;;30.67;28.92
5062;BME280;2351;50.812;12.872;2022-08-03T11:43:43;97901.78;;;30.93;27.49
5062;BME280;2351;50.812;12.872;2022-08-03T11:46:15;97909.41;;;30.91;27.41
5062;BME280;2351;50.812;12.872;2022-08-03T11:48:52;97914.66;;;30.98;28.54
5062;BME280;2351;50.812;12.872;2022-08-03T11:51:29;97909.28;;;31.18;27.46
5062;BME280;2351;50.812;12.872;2022-08-03T11:54:02;97918.59;;;31.17;27.69
5062;BME280;2351;50.812;12.872;2022-08-03T11:56:45;97908.78;;;31.32;27.86
5062;BME280;2351;50.812;12.872;2022-08-03T11:59:17;97913.72;;;31.45;28.26
5062;BME280;2351;50.812;12.872;2022-08-03T12:01:49;97913.75;;;31.55;27.69
5062;BME280;2351;50.812;12.872;2022-08-03T12:04:21;97900.66;;;31.63;27.40
5062;BME280;2351;50.812;12.872;2022-08-03T12:06:59;97905.28;;;31.62;27.03
5062;BME280;2351;50.812;12.872;2022-08-03T12:09:31;97894.91;;;31.69;27.10
5062;BME280;2351;50.812;12.872;2022-08-03T12:12:05;97905.91;;;31.85;27.58
5062;BME280;2351;50.812;12.872;2022-08-03T12:14:37;97890.28;;;31.91;26.88
5062;BME280;2351;50.812;12.872;2022-08-03T12:17:08;97893.59;;;31.88;27.16
5062;BME280;2351;50.812;12.872;2022-08-03T12:19:42;97894.16;;;31.84;26.24
5062;BME280;2351;50.812;12.872;2022-08-03T12:22:14;97885.38;;;31.72;26.36
5062;BME280;2351;50.812;12.872;2022-08-03T12:24:46;97886.13;;;31.47;27.26
5062;BME280;2351;50.812;12.872;2022-08-03T12:27:24;97885.31;;;31.57;27.78
5062;BME280;2351;50.812;12.872;2022-08-03T12:29:59;97879.09;;;31.77;27.29
5062;BME280;2351;50.812;12.872;2022-08-03T12:32:31;97873.06;;;32.00;27.15
5062;BME280;2351;50.812;12.872;2022-08-03T12:35:05;97882.09;;;32.01;26.43
5062;BME280;2351;50.812;12.872;2022-08-03T12:37:37;97878.81;;;32.04;25.61
5062;BME280;2351;50.812;12.872;2022-08-03T12:40:09;97877.72;;;32.10;26.33
5062;BME280;2351;50.812;12.872;2022-08-03T12:42:43;97874.69;;;32.22;26.08
5062;BME280;2351;50.812;12.872;2022-08-03T12:45:18;97873.91;;;32.27;26.18
5062;BME280;2351;50.812;12.872;2022-08-03T12:47:52;97865.69;;;32.32;26.10
5062;BME280;2351;50.812;12.872;2022-08-03T12:50:28;97868.41;;;32.37;25.96
5062;BME280;2351;50.812;12.872;2022-08-03T12:53:02;97863.47;;;32.24;25.94
5062;BME280;2351;50.812;12.872;2022-08-03T12:55:35;97877.16;;;32.24;26.26
5062;BME280;2351;50.812;12.872;2022-08-03T12:58:07;97864.28;;;32.24;25.92
5062;BME280;2351;50.812;12.872;2022-08-03T13:00:40;97870.59;;;32.40;26.37
5062;BME280;2351;50.812;12.872;2022-08-03T13:03:11;97864.25;;;32.66;26.15
5062;BME280;2351;50.812;12.872;2022-08-03T13:05:45;97857.38;;;32.68;24.84
5062;BME280;2351;50.812;12.872;2022-08-03T13:08:17;97853.06;;;32.41;25.34
5062;BME280;2351;50.812;12.872;2022-08-03T13:10:50;97863.72;;;32.48;25.71
5062;BME280;2351;50.812;12.872;2022-08-03T13:13:36;97854.16;;;32.25;25.76
5062;BME280;2351;50.812;12.872;2022-08-03T13:16:08;97856.38;;;32.28;26.03
5062;BME280;2351;50.812;12.872;2022-08-03T13:18:40;97854.19;;;31.99;26.40
5062;BME280;2351;50.812;12.872;2022-08-03T13:21:13;97856.34;;;32.23;26.71
5062;BME280;2351;50.812;12.872;2022-08-03T13:23:45;97850.63;;;32.40;25.73
5062;BME280;2351;50.812;12.872;2022-08-03T13:26:17;97851.16;;;32.37;25.23
5062;BME280;2351;50.812;12.872;2022-08-03T13:28:49;97844.84;;;32.36;25.05
5062;BME280;2351;50.812;12.872;2022-08-03T13:31:21;97846.19;;;32.49;25.31
5062;BME280;2351;50.812;12.872;2022-08-03T13:33:52;97839.84;;;32.69;24.94
5062;BME280;2351;50.812;12.872;2022-08-03T13:36:25;97844.44;;;32.79;25.16
5062;BME280;2351;50.812;12.872;2022-08-03T13:38:57;97839.53;;;32.76;25.19
5062;BME280;2351;50.812;12.872;2022-08-03T13:41:28;97845.81;;;32.82;25.15
5062;BME280;2351;50.812;12.872;2022-08-03T13:44:00;97840.88;;;32.89;25.32
5062;BME280;2351;50.812;12.872;2022-08-03T13:46:31;97834.84;;;32.87;24.74